AAL1549 KLAX-KLAS
Flight info
| Callsign | AAL1549 |
|---|---|
| Flight time | N/A |
| Altitude | 27000 |
| Route | ORCKA5 MISEN RNDRZ3 |
| Aircraft | A20N/M-SDE2E3FGHIRWXY/LB1 |
Departure
| Time | 2026-04-23 03:26 |
|---|---|
| Airport | Los Angeles International Airport (KLAX) |
Arrival
| Time | N/A |
|---|---|
| Airport | Harry Reid International Airport (KLAS) |
| Time | Latitude | Longitude | Altitude | Speed | Heading |
|---|---|---|---|---|---|
| 2026-04-23 03:13 | 33.94130 | -118.39166 | 125 ft | 0 kts | 353° |
| 2026-04-23 03:19 | 33.94120 | -118.39165 | 122 ft | 2 kts | 0° |
| 2026-04-23 03:19 | 33.94091 | -118.39176 | 120 ft | 0 kts | 66° |
| 2026-04-23 03:22 | 33.94090 | -118.39176 | 120 ft | 0 kts | 73° |
| 2026-04-23 03:23 | 33.94082 | -118.39153 | 122 ft | 7 kts | 127° |
| 2026-04-23 03:23 | 33.94053 | -118.39069 | 122 ft | 14 kts | 106° |
| 2026-04-23 03:23 | 33.93990 | -118.38960 | 121 ft | 18 kts | 101° |
| 2026-04-23 03:23 | 33.94002 | -118.38792 | 123 ft | 23 kts | 83° |
| 2026-04-23 03:24 | 33.94023 | -118.38584 | 125 ft | 27 kts | 83° |
| 2026-04-23 03:24 | 33.94048 | -118.38340 | 125 ft | 32 kts | 83° |
| 2026-04-23 03:24 | 33.94070 | -118.38120 | 122 ft | 13 kts | 82° |
| 2026-04-23 03:24 | 33.94075 | -118.38048 | 125 ft | 9 kts | 94° |
| 2026-04-23 03:25 | 33.93995 | -118.38019 | 123 ft | 18 kts | 222° |
| 2026-04-23 03:25 | 33.93971 | -118.38162 | 125 ft | 26 kts | 263° |
| 2026-04-23 03:25 | 33.93922 | -118.38653 | 125 ft | 91 kts | 263° |
| 2026-04-23 03:25 | 33.93821 | -118.39634 | 123 ft | 141 kts | 263° |
| 2026-04-23 03:26 | 33.93698 | -118.40835 | 532 ft | 147 kts | 263° |
| 2026-04-23 03:26 | 33.93574 | -118.42111 | 993 ft | 160 kts | 263° |
| 2026-04-23 03:26 | 33.93443 | -118.43503 | 1449 ft | 174 kts | 265° |
| 2026-04-23 03:26 | 33.93297 | -118.45005 | 1908 ft | 188 kts | 264° |
| 2026-04-23 03:27 | 33.93104 | -118.46651 | 2295 ft | 209 kts | 259° |
| 2026-04-23 03:27 | 33.92632 | -118.48418 | 2750 ft | 231 kts | 250° |
| 2026-04-23 03:27 | 33.91994 | -118.50229 | 3494 ft | 238 kts | 248° |
| 2026-04-23 03:27 | 33.91302 | -118.52060 | 4290 ft | 241 kts | 247° |
| 2026-04-23 03:28 | 33.90534 | -118.53886 | 5031 ft | 248 kts | 237° |
| 2026-04-23 03:28 | 33.89292 | -118.55389 | 5376 ft | 269 kts | 214° |
| 2026-04-23 03:28 | 33.87466 | -118.56122 | 5580 ft | 287 kts | 184° |
| 2026-04-23 03:28 | 33.85533 | -118.55697 | 6551 ft | 288 kts | 156° |
| 2026-04-23 03:29 | 33.83913 | -118.54283 | 7386 ft | 294 kts | 130° |
| 2026-04-23 03:29 | 33.82922 | -118.52115 | 8134 ft | 301 kts | 104° |
| 2026-04-23 03:29 | 33.82781 | -118.49596 | 8843 ft | 306 kts | 77° |
| 2026-04-23 03:29 | 33.83536 | -118.47224 | 9594 ft | 305 kts | 51° |
| 2026-04-23 03:30 | 33.85035 | -118.45461 | 10299 ft | 300 kts | 24° |
| 2026-04-23 03:30 | 33.86956 | -118.44670 | 11066 ft | 288 kts | 359° |
| 2026-04-23 03:30 | 33.88958 | -118.44581 | 11852 ft | 289 kts | 355° |
| 2026-04-23 03:30 | 33.90976 | -118.44298 | 12640 ft | 299 kts | 6° |
| 2026-04-23 03:31 | 33.92912 | -118.43228 | 13384 ft | 318 kts | 30° |
| 2026-04-23 03:31 | 33.94489 | -118.41261 | 14079 ft | 335 kts | 47° |
| 2026-04-23 03:31 | 33.95836 | -118.38951 | 14712 ft | 341 kts | 49° |
| 2026-04-23 03:31 | 33.97180 | -118.36555 | 15334 ft | 347 kts | 50° |
| 2026-04-23 03:32 | 33.98515 | -118.34159 | 15978 ft | 351 kts | 50° |
| 2026-04-23 03:32 | 33.99895 | -118.31694 | 16595 ft | 356 kts | 50° |
| 2026-04-23 03:32 | 34.01295 | -118.29206 | 17228 ft | 361 kts | 50° |
| 2026-04-23 03:32 | 34.02717 | -118.26690 | 17837 ft | 366 kts | 50° |
| 2026-04-23 03:33 | 34.04159 | -118.24144 | 18450 ft | 370 kts | 50° |
| 2026-04-23 03:33 | 34.05616 | -118.21572 | 18994 ft | 374 kts | 50° |
| 2026-04-23 03:33 | 34.07090 | -118.18966 | 19557 ft | 377 kts | 50° |
| 2026-04-23 03:33 | 34.08573 | -118.16344 | 20104 ft | 381 kts | 50° |
| 2026-04-23 03:34 | 34.10073 | -118.13688 | 20648 ft | 384 kts | 50° |
| 2026-04-23 03:34 | 34.11587 | -118.11008 | 21183 ft | 388 kts | 50° |
| 2026-04-23 03:34 | 34.13109 | -118.08309 | 21707 ft | 391 kts | 50° |
| 2026-04-23 03:34 | 34.14649 | -118.05577 | 22233 ft | 395 kts | 50° |
| 2026-04-23 03:35 | 34.16182 | -118.02855 | 22737 ft | 399 kts | 50° |
| 2026-04-23 03:35 | 34.17745 | -118.00077 | 23251 ft | 402 kts | 50° |
| 2026-04-23 03:35 | 34.19331 | -117.97258 | 23746 ft | 406 kts | 50° |
| 2026-04-23 03:35 | 34.20925 | -117.94423 | 24080 ft | 410 kts | 50° |
| 2026-04-23 03:36 | 34.22530 | -117.91566 | 24467 ft | 413 kts | 50° |
| 2026-04-23 03:36 | 34.24144 | -117.88689 | 24912 ft | 414 kts | 50° |
| 2026-04-23 03:36 | 34.25770 | -117.85788 | 25308 ft | 417 kts | 50° |
| 2026-04-23 03:36 | 34.27403 | -117.82873 | 25719 ft | 420 kts | 50° |
| 2026-04-23 03:37 | 34.29044 | -117.79941 | 26099 ft | 423 kts | 50° |
| 2026-04-23 03:37 | 34.30699 | -117.76982 | 26479 ft | 426 kts | 50° |
| 2026-04-23 03:37 | 34.32361 | -117.74006 | 26868 ft | 428 kts | 50° |
| 2026-04-23 03:37 | 34.34039 | -117.71004 | 27052 ft | 432 kts | 50° |
| 2026-04-23 03:38 | 34.35725 | -117.67993 | 27072 ft | 432 kts | 49° |
| 2026-04-23 03:38 | 34.37440 | -117.65077 | 27072 ft | 430 kts | 48° |
| 2026-04-23 03:38 | 34.39204 | -117.62159 | 27069 ft | 429 kts | 47° |
| 2026-04-23 03:38 | 34.40970 | -117.59242 | 27068 ft | 430 kts | 48° |
| 2026-04-23 03:39 | 34.42731 | -117.56318 | 27080 ft | 430 kts | 48° |
| 2026-04-23 03:39 | 34.44485 | -117.53389 | 27085 ft | 430 kts | 48° |
| 2026-04-23 03:39 | 34.46241 | -117.50446 | 27091 ft | 431 kts | 48° |
| 2026-04-23 03:39 | 34.48024 | -117.47460 | 27098 ft | 445 kts | 48° |
| 2026-04-23 03:40 | 34.49869 | -117.44367 | 27107 ft | 459 kts | 49° |
| 2026-04-23 03:40 | 34.51767 | -117.41179 | 27113 ft | 472 kts | 49° |
| 2026-04-23 03:40 | 34.53710 | -117.37905 | 27111 ft | 485 kts | 49° |
| 2026-04-23 03:40 | 34.55696 | -117.34548 | 27107 ft | 489 kts | 49° |
| 2026-04-23 03:41 | 34.57649 | -117.31243 | 27110 ft | 488 kts | 49° |
| 2026-04-23 03:41 | 34.59628 | -117.27893 | 27111 ft | 488 kts | 49° |
| 2026-04-23 03:41 | 34.61607 | -117.24544 | 27100 ft | 488 kts | 49° |
| 2026-04-23 03:41 | 34.63583 | -117.21199 | 27091 ft | 488 kts | 49° |
| 2026-04-23 03:42 | 34.65564 | -117.17843 | 27076 ft | 488 kts | 49° |
| 2026-04-23 03:42 | 34.67540 | -117.14493 | 27063 ft | 488 kts | 49° |
| 2026-04-23 03:42 | 34.69518 | -117.11137 | 27047 ft | 489 kts | 49° |
| 2026-04-23 03:42 | 34.71499 | -117.07772 | 27030 ft | 489 kts | 49° |
| 2026-04-23 03:43 | 34.73476 | -117.04408 | 27001 ft | 488 kts | 49° |
| 2026-04-23 03:43 | 34.75448 | -117.01052 | 27003 ft | 489 kts | 49° |
| 2026-04-23 03:43 | 34.77426 | -116.97682 | 27007 ft | 489 kts | 49° |
| 2026-04-23 03:43 | 34.79404 | -116.94309 | 27006 ft | 489 kts | 49° |
| 2026-04-23 03:44 | 34.81379 | -116.90939 | 27011 ft | 489 kts | 49° |
| 2026-04-23 03:44 | 34.83351 | -116.87569 | 27010 ft | 489 kts | 49° |
| 2026-04-23 03:44 | 34.85328 | -116.84187 | 27010 ft | 489 kts | 49° |
| 2026-04-23 03:44 | 34.87298 | -116.80815 | 27008 ft | 489 kts | 50° |
| 2026-04-23 03:45 | 34.89252 | -116.77468 | 27008 ft | 490 kts | 50° |
| 2026-04-23 03:45 | 34.91225 | -116.74085 | 27010 ft | 490 kts | 50° |
| 2026-04-23 03:45 | 34.93192 | -116.70693 | 27009 ft | 490 kts | 50° |
| 2026-04-23 03:45 | 34.95136 | -116.67266 | 27004 ft | 491 kts | 51° |
| 2026-04-23 03:46 | 34.97067 | -116.63829 | 27000 ft | 491 kts | 51° |
| 2026-04-23 03:46 | 34.98998 | -116.60391 | 26997 ft | 492 kts | 51° |
| 2026-04-23 03:46 | 35.00931 | -116.56952 | 26993 ft | 492 kts | 51° |
| 2026-04-23 03:46 | 35.02868 | -116.53507 | 26986 ft | 492 kts | 51° |
| 2026-04-23 03:47 | 35.04813 | -116.50050 | 26987 ft | 493 kts | 51° |
| 2026-04-23 03:47 | 35.06753 | -116.46600 | 26989 ft | 493 kts | 51° |
| 2026-04-23 03:47 | 35.08694 | -116.43145 | 26988 ft | 494 kts | 51° |
| 2026-04-23 03:47 | 35.10690 | -116.39809 | 26988 ft | 490 kts | 44° |
| 2026-04-23 03:48 | 35.12964 | -116.36722 | 26987 ft | 488 kts | 41° |
| 2026-04-23 03:48 | 35.15257 | -116.33652 | 26983 ft | 488 kts | 41° |
| 2026-04-23 03:48 | 35.17542 | -116.30576 | 26945 ft | 486 kts | 41° |
| 2026-04-23 03:48 | 35.19810 | -116.27518 | 26639 ft | 484 kts | 41° |
| 2026-04-23 03:49 | 35.22064 | -116.24476 | 26181 ft | 481 kts | 41° |
| 2026-04-23 03:49 | 35.24272 | -116.21494 | 25650 ft | 477 kts | 41° |
| 2026-04-23 03:49 | 35.26488 | -116.18501 | 25170 ft | 472 kts | 41° |
| 2026-04-23 03:49 | 35.28683 | -116.15531 | 24651 ft | 469 kts | 41° |
| 2026-04-23 03:50 | 35.30864 | -116.12580 | 24153 ft | 465 kts | 41° |
| 2026-04-23 03:50 | 35.33023 | -116.09656 | 23682 ft | 460 kts | 41° |
| 2026-04-23 03:50 | 35.35053 | -116.06630 | 23161 ft | 460 kts | 49° |
| 2026-04-23 03:50 | 35.37053 | -116.03617 | 22603 ft | 451 kts | 41° |
| 2026-04-23 03:51 | 35.39196 | -116.00851 | 22071 ft | 445 kts | 40° |
| 2026-04-23 03:51 | 35.41341 | -115.98136 | 21581 ft | 441 kts | 40° |
| 2026-04-23 03:51 | 35.43441 | -115.95420 | 21089 ft | 437 kts | 41° |
| 2026-04-23 03:51 | 35.45498 | -115.92694 | 20588 ft | 433 kts | 42° |
| 2026-04-23 03:52 | 35.47517 | -115.89973 | 20109 ft | 429 kts | 43° |
| 2026-04-23 03:52 | 35.49508 | -115.87269 | 19620 ft | 425 kts | 43° |
| 2026-04-23 03:52 | 35.51481 | -115.84577 | 19174 ft | 420 kts | 43° |
| 2026-04-23 03:52 | 35.53402 | -115.81949 | 19014 ft | 407 kts | 43° |
| 2026-04-23 03:53 | 35.55260 | -115.79403 | 18888 ft | 394 kts | 43° |
| 2026-04-23 03:53 | 35.57035 | -115.76970 | 18778 ft | 381 kts | 43° |
| 2026-04-23 03:53 | 35.58777 | -115.74584 | 18647 ft | 369 kts | 43° |
| 2026-04-23 03:53 | 35.60480 | -115.72263 | 18378 ft | 363 kts | 43° |
| 2026-04-23 03:54 | 35.62178 | -115.69976 | 17983 ft | 360 kts | 43° |
| 2026-04-23 03:54 | 35.63862 | -115.67713 | 17598 ft | 357 kts | 43° |
| 2026-04-23 03:54 | 35.65536 | -115.65461 | 17222 ft | 354 kts | 43° |
| 2026-04-23 03:54 | 35.67190 | -115.63229 | 16838 ft | 352 kts | 43° |
| 2026-04-23 03:55 | 35.68832 | -115.61010 | 16461 ft | 349 kts | 43° |
| 2026-04-23 03:55 | 35.70457 | -115.58811 | 16062 ft | 346 kts | 43° |
| 2026-04-23 03:55 | 35.72095 | -115.56652 | 15701 ft | 341 kts | 39° |
| 2026-04-23 03:55 | 35.73900 | -115.54865 | 15315 ft | 334 kts | 28° |
| 2026-04-23 03:56 | 35.75894 | -115.53438 | 14953 ft | 329 kts | 24° |
| 2026-04-23 03:56 | 35.77887 | -115.52058 | 14603 ft | 328 kts | 24° |
| 2026-04-23 03:56 | 35.79857 | -115.50679 | 14255 ft | 325 kts | 25° |
| 2026-04-23 03:56 | 35.81816 | -115.49303 | 13892 ft | 323 kts | 25° |
| 2026-04-23 03:57 | 35.83757 | -115.47939 | 13512 ft | 320 kts | 25° |
| 2026-04-23 03:57 | 35.85685 | -115.46586 | 13140 ft | 316 kts | 25° |
| 2026-04-23 03:57 | 35.87584 | -115.45251 | 13013 ft | 314 kts | 25° |
| 2026-04-23 03:57 | 35.89497 | -115.43910 | 12994 ft | 317 kts | 25° |
| 2026-04-23 03:58 | 35.90767 | -115.43018 | 12970 ft | 317 kts | 25° |
| 2026-04-23 03:58 | 35.92673 | -115.41682 | 12794 ft | 314 kts | 25° |
| 2026-04-23 03:58 | 35.94569 | -115.40361 | 12480 ft | 311 kts | 26° |
| 2026-04-23 03:58 | 35.96454 | -115.39046 | 12101 ft | 309 kts | 26° |
| 2026-04-23 03:59 | 35.98311 | -115.37751 | 11584 ft | 306 kts | 26° |
| 2026-04-23 03:59 | 36.00082 | -115.36300 | 11120 ft | 308 kts | 41° |
| 2026-04-23 03:59 | 36.01296 | -115.34132 | 10756 ft | 309 kts | 66° |
| 2026-04-23 03:59 | 36.01700 | -115.31554 | 10393 ft | 308 kts | 89° |
| 2026-04-23 04:00 | 36.01584 | -115.28919 | 10027 ft | 306 kts | 95° |
| 2026-04-23 04:00 | 36.01354 | -115.26317 | 9674 ft | 303 kts | 96° |
| 2026-04-23 04:00 | 36.01136 | -115.23739 | 9280 ft | 301 kts | 95° |
| 2026-04-23 04:00 | 36.00956 | -115.21181 | 9062 ft | 293 kts | 94° |
| 2026-04-23 04:01 | 36.00808 | -115.18696 | 9025 ft | 291 kts | 93° |
| 2026-04-23 04:01 | 36.00676 | -115.16222 | 9018 ft | 298 kts | 92° |
| 2026-04-23 04:01 | 36.00544 | -115.13610 | 8996 ft | 298 kts | 93° |
| 2026-04-23 04:01 | 36.00417 | -115.11120 | 8923 ft | 290 kts | 93° |
| 2026-04-23 04:02 | 36.00294 | -115.08673 | 8826 ft | 280 kts | 92° |
| 2026-04-23 04:02 | 36.00174 | -115.06322 | 8703 ft | 270 kts | 93° |
| 2026-04-23 04:02 | 36.00058 | -115.04032 | 8444 ft | 265 kts | 92° |
| 2026-04-23 04:02 | 35.99944 | -115.01808 | 8323 ft | 254 kts | 92° |
| 2026-04-23 04:03 | 35.99856 | -114.99685 | 8165 ft | 242 kts | 90° |
| 2026-04-23 04:03 | 35.99843 | -114.97631 | 7894 ft | 236 kts | 89° |
| 2026-04-23 04:03 | 35.99852 | -114.95690 | 7842 ft | 217 kts | 89° |
| 2026-04-23 04:03 | 35.99859 | -114.93878 | 7708 ft | 204 kts | 89° |
| 2026-04-23 04:04 | 35.99860 | -114.92159 | 7460 ft | 201 kts | 89° |
| 2026-04-23 04:04 | 35.99857 | -114.90391 | 7001 ft | 211 kts | 90° |
| 2026-04-23 04:04 | 35.99851 | -114.88552 | 6635 ft | 214 kts | 90° |
| 2026-04-23 04:04 | 35.99842 | -114.86709 | 6510 ft | 221 kts | 90° |
| 2026-04-23 04:05 | 35.99832 | -114.84758 | 6484 ft | 232 kts | 90° |
| 2026-04-23 04:05 | 35.99819 | -114.82775 | 6494 ft | 229 kts | 90° |
| 2026-04-23 04:05 | 35.99809 | -114.80865 | 6496 ft | 224 kts | 90° |
| 2026-04-23 04:05 | 35.99902 | -114.78988 | 6486 ft | 206 kts | 71° |
| 2026-04-23 04:06 | 36.00574 | -114.77601 | 6477 ft | 179 kts | 35° |
| 2026-04-23 04:06 | 36.01602 | -114.77051 | 6492 ft | 154 kts | 356° |